KSRE

Details ICAO KSRE
Name SEMINOLE MUNI
Region United States
Timezone America/Chicago (UTC-5.0)
Plans Departing 1
Arriving 1
Stats Elevation 1,024 ft / 312 m (AMSL)
Location 35.274083° -96.675733°
Runways 2
Magnetic Variation 3.145° E
Sunrise 2018-05-21 11:19:48 UTC / 2018-05-21 06:19:48 Local
Sunset 2018-05-22 01:29:41 UTC / 2018-05-21 20:29:41 Local
Advertisement - Login to hide

Runways

ID Width Length Bearing (true) Bearing (mag) Surface Threshold Offset Overrun Length
05 150 ft / 46 m 2,002 ft / 610 m 36.57° 33.42° Dirt 0 ft / 0 m 0 ft / 0 m
16 75 ft / 23 m 5,011 ft / 1,527 m 165.60° 162.45° Asphalt 0 ft / 0 m 0 ft / 0 m
23 150 ft / 46 m 2,002 ft / 610 m 216.57° 213.42° Dirt 0 ft / 0 m 0 ft / 0 m
34 75 ft / 23 m 5,011 ft / 1,527 m 345.60° 342.45° Asphalt 0 ft / 0 m 0 ft / 0 m

Map

Weather


0- 5 10 15 20 25 30 35+ Temperature / ° C

Clouds and Precipitation
Forecast for 2018-05-22 00:00 UTC. Updated 4 hours ago

Ground ~20,000 ft ~40,000 ft Winds

METAR

KSRE 220235Z AUTO 00000KT 10SM CLR 22/19 A3000 RMK AO2

TAF

Not found

Frequencies

Recorded 118.62 MHz AWOS 3
Unicom 122.80 MHz CTAF/UNICOM
Warning: Do not use this data for real-world aviation or navigation. No guarantee of current accuracy is given.